createdAt,value
2022-08-25T00:00:55.239Z,16.13
2022-08-25T00:02:58.290Z,12.10
2022-08-25T00:05:00.786Z,11.98
2022-08-25T00:07:05.757Z,12.38
2022-08-25T00:09:09.134Z,12.82
2022-08-25T00:11:21.140Z,10.32
2022-08-25T00:13:23.470Z,9.98
2022-08-25T00:15:29.464Z,9.60
2022-08-25T00:17:31.450Z,8.95
2022-08-25T00:19:36.304Z,10.05
2022-08-25T00:21:40.374Z,9.63
2022-08-25T00:23:43.765Z,9.35
2022-08-25T00:25:46.167Z,11.68
2022-08-25T00:27:48.214Z,8.73
2022-08-25T00:29:51.105Z,7.07
2022-08-25T00:31:56.697Z,8.70
2022-08-25T00:33:58.984Z,8.50
2022-08-25T00:36:01.573Z,9.23
2022-08-25T00:38:04.197Z,8.93
2022-08-25T00:40:07.306Z,8.68
2022-08-25T00:42:11.780Z,9.73
2022-08-25T00:44:19.755Z,8.60
2022-08-25T00:46:29.322Z,8.32
2022-08-25T00:48:32.414Z,6.95
2022-08-25T00:50:37.082Z,9.13
2022-08-25T00:52:49.681Z,8.05
2022-08-25T00:54:56.695Z,8.75
2022-08-25T00:57:00.301Z,6.85
2022-08-25T00:59:04.374Z,10.15
2022-08-25T01:01:08.141Z,6.05
2022-08-25T01:03:11.323Z,11.95
2022-08-25T01:05:13.603Z,7.27
2022-08-25T01:07:18.836Z,7.50
2022-08-25T01:09:23.498Z,7.25
2022-08-25T01:11:27.849Z,6.57
2022-08-25T01:13:35.359Z,8.70
2022-08-25T01:15:37.915Z,6.13
2022-08-25T01:17:49.216Z,10.20
2022-08-25T01:19:51.191Z,9.50
2022-08-25T01:21:54.452Z,7.80
2022-08-25T01:23:58.583Z,9.85
2022-08-25T01:26:30.548Z,7.47
2022-08-25T01:28:35.050Z,10.75
2022-08-25T01:30:39.850Z,9.65
2022-08-25T01:32:41.829Z,15.40
2022-08-25T01:34:45.550Z,8.65
2022-08-25T01:36:48.142Z,8.02
2022-08-25T01:38:50.584Z,8.30
2022-08-25T01:40:52.899Z,9.07
2022-08-25T01:43:31.796Z,6.07
2022-08-25T01:45:35.137Z,8.52
2022-08-25T01:47:38.628Z,8.68
2022-08-25T01:49:41.109Z,11.35
2022-08-25T01:51:47.513Z,7.97
2022-08-25T01:53:51.141Z,11.00
2022-08-25T01:55:54.421Z,8.60
2022-08-25T01:57:58.984Z,6.45
2022-08-25T02:00:01.870Z,7.70
2022-08-25T02:02:07.045Z,7.15
2022-08-25T02:04:09.585Z,6.93
2022-08-25T02:06:28.846Z,6.25
2022-08-25T02:08:32.894Z,5.88
2022-08-25T02:10:35.401Z,9.88
2022-08-25T02:12:37.895Z,7.53
2022-08-25T02:14:40.175Z,8.55
2022-08-25T02:16:48.615Z,9.93
2022-08-25T02:18:50.911Z,7.43
2022-08-25T02:20:53.195Z,7.85
2022-08-25T02:22:57.162Z,8.02
2022-08-25T02:27:04.041Z,6.97
2022-08-25T02:31:09.920Z,9.82
2022-08-25T02:33:12.105Z,9.07
2022-08-25T02:35:14.118Z,8.18
2022-08-25T02:37:16.154Z,7.65
2022-08-25T02:39:18.184Z,9.02
2022-08-25T02:41:30.737Z,8.25
2022-08-25T02:43:33.749Z,9.43
2022-08-25T02:45:36.843Z,10.95
2022-08-25T02:47:38.819Z,9.48
2022-08-25T02:49:40.812Z,6.60
2022-08-25T02:51:43.997Z,11.17
2022-08-25T02:53:47.151Z,8.52
2022-08-25T02:55:49.201Z,9.17
2022-08-25T02:57:51.680Z,7.18
2022-08-25T02:59:54.510Z,9.60
2022-08-25T03:01:56.645Z,11.43
2022-08-25T03:03:59.315Z,8.57
2022-08-25T03:06:02.468Z,6.35
2022-08-25T03:08:06.175Z,6.68
2022-08-25T03:10:14.742Z,8.95
2022-08-25T03:12:17.215Z,10.55
2022-08-25T03:14:19.264Z,10.27
2022-08-25T03:16:21.578Z,9.40
2022-08-25T03:18:23.581Z,10.55
2022-08-25T03:20:27.947Z,9.70
2022-08-25T03:22:29.900Z,7.55
2022-08-25T03:24:32.889Z,6.28
2022-08-25T03:26:53.383Z,9.38
2022-08-25T03:28:55.960Z,8.85
2022-08-25T03:31:00.389Z,8.68
2022-08-25T03:33:03.326Z,10.35
2022-08-25T03:35:05.772Z,6.10
2022-08-25T03:37:08.611Z,9.18
2022-08-25T03:39:10.874Z,10.73
2022-08-25T03:41:29.262Z,10.00
2022-08-25T03:43:31.838Z,8.90
2022-08-25T03:45:34.094Z,10.25
2022-08-25T03:47:36.218Z,9.40
2022-08-25T03:49:38.248Z,10.60
2022-08-25T03:51:43.115Z,7.68
2022-08-25T03:53:45.441Z,7.15
2022-08-25T03:55:47.945Z,14.02
2022-08-25T03:57:50.600Z,7.47
2022-08-25T03:59:53.595Z,6.10
2022-08-25T04:01:55.796Z,8.88
2022-08-25T04:03:58.035Z,8.95
2022-08-25T04:06:04.937Z,6.53
2022-08-25T04:08:08.124Z,7.22
2022-08-25T04:10:12.556Z,7.57
2022-08-25T04:12:14.630Z,9.57
2022-08-25T04:14:16.869Z,11.30
2022-08-25T04:16:24.917Z,6.68
2022-08-25T04:18:31.352Z,11.15
2022-08-25T04:20:33.315Z,10.10
2022-08-25T04:22:36.986Z,14.93
2022-08-25T04:26:45.344Z,9.00
2022-08-25T04:28:50.208Z,8.52
2022-08-25T04:30:52.345Z,9.85
2022-08-25T04:32:54.390Z,15.32
2022-08-25T04:34:57.104Z,13.70
2022-08-25T04:37:01.815Z,15.40
2022-08-25T04:39:04.589Z,13.35
2022-08-25T04:41:07.947Z,16.13
2022-08-25T04:43:10.223Z,17.50
2022-08-25T04:45:12.265Z,21.73
2022-08-25T04:47:14.357Z,17.27
2022-08-25T04:49:16.389Z,23.17
2022-08-25T04:51:24.846Z,20.95
2022-08-25T04:53:26.889Z,18.55
2022-08-25T04:55:28.998Z,18.10
2022-08-25T04:57:31.087Z,23.13
2022-08-25T04:59:33.589Z,20.83
2022-08-25T05:01:36.480Z,20.00
2022-08-25T05:03:39.051Z,19.95
2022-08-25T05:05:41.162Z,24.17
2022-08-25T05:07:43.197Z,20.95
2022-08-25T05:09:45.206Z,19.95
2022-08-25T05:11:47.346Z,22.35
2022-08-25T05:13:51.799Z,16.15
2022-08-25T05:16:00.206Z,14.38
2022-08-25T05:18:02.773Z,14.50
2022-08-25T05:20:05.534Z,12.88
2022-08-25T05:22:07.538Z,16.83
2022-08-25T05:24:09.643Z,15.80
2022-08-25T05:26:22.022Z,14.55
2022-08-25T05:28:24.389Z,17.60
2022-08-25T05:30:26.669Z,14.05
2022-08-25T05:32:31.276Z,10.93
2022-08-25T05:34:33.335Z,12.13
2022-08-25T05:36:36.456Z,16.75
2022-08-25T05:38:40.998Z,13.00
2022-08-25T05:40:42.999Z,14.52
2022-08-25T05:42:44.989Z,12.45
2022-08-25T05:44:47.470Z,16.85
2022-08-25T05:46:49.867Z,14.32
2022-08-25T05:48:53.433Z,11.32
2022-08-25T05:50:57.825Z,16.60
2022-08-25T05:52:59.888Z,15.88
2022-08-25T05:55:01.955Z,11.00
2022-08-25T05:57:04.159Z,18.42
2022-08-25T05:59:09.286Z,11.73
2022-08-25T06:01:43.462Z,13.80
2022-08-25T06:03:47.919Z,14.63
2022-08-25T06:05:50.306Z,10.40
2022-08-25T06:07:52.934Z,14.73
2022-08-25T06:09:55.363Z,16.00
2022-08-25T06:11:57.643Z,17.88
2022-08-25T06:13:59.573Z,13.65
2022-08-25T06:16:01.845Z,14.00
2022-08-25T06:18:03.987Z,15.20
2022-08-25T06:20:07.099Z,16.17
2022-08-25T06:22:09.024Z,17.95
2022-08-25T06:24:15.163Z,17.33
2022-08-25T06:26:20.613Z,14.60
2022-08-25T06:28:23.857Z,15.00
2022-08-25T06:30:29.283Z,15.23
2022-08-25T06:32:36.791Z,20.63
2022-08-25T06:34:39.009Z,16.05
2022-08-25T06:36:42.153Z,14.02
2022-08-25T06:38:44.260Z,14.23
2022-08-25T06:40:49.197Z,16.20
2022-08-25T06:42:51.384Z,16.50
2022-08-25T06:44:56.238Z,14.90
2022-08-25T06:46:58.473Z,12.05
2022-08-25T06:49:01.033Z,13.65
2022-08-25T06:51:10.241Z,14.68
2022-08-25T06:53:16.463Z,11.25
2022-08-25T06:55:18.729Z,13.00
2022-08-25T06:57:20.753Z,13.38
2022-08-25T06:59:22.793Z,16.80
2022-08-25T07:01:27.298Z,12.05
2022-08-25T07:03:29.924Z,11.40
2022-08-25T07:05:43.531Z,13.02
2022-08-25T07:09:48.585Z,12.68
2022-08-25T07:11:50.573Z,11.48
2022-08-25T07:13:52.815Z,13.73
2022-08-25T07:15:55.895Z,12.57
2022-08-25T07:17:58.012Z,11.33
2022-08-25T07:20:00.284Z,16.70
2022-08-25T07:22:02.644Z,13.50
2022-08-25T07:24:10.462Z,19.67
2022-08-25T07:26:37.384Z,10.43
2022-08-25T07:28:47.321Z,11.98
2022-08-25T07:30:52.140Z,11.57
2022-08-25T07:32:55.571Z,13.05
2022-08-25T07:35:15.649Z,11.02
2022-08-25T07:37:47.607Z,10.35
2022-08-25T07:39:45.054Z,11.02
2022-08-25T07:41:47.024Z,10.48
2022-08-25T07:43:54.293Z,12.73
2022-08-25T07:45:56.320Z,9.75
2022-08-25T07:48:00.977Z,10.50
2022-08-25T07:50:03.641Z,10.18
2022-08-25T07:52:09.054Z,8.07
2022-08-25T07:54:11.265Z,12.10
2022-08-25T07:56:16.007Z,9.05
2022-08-25T07:58:18.352Z,8.05
2022-08-25T08:00:21.069Z,8.88
2022-08-25T08:02:24.702Z,8.18
2022-08-25T08:04:26.924Z,7.13
2022-08-25T08:06:30.403Z,13.63
2022-08-25T08:08:32.649Z,9.88
2022-08-25T08:10:54.067Z,8.73
2022-08-25T08:12:58.823Z,11.18
2022-08-25T08:15:01.783Z,9.95
2022-08-25T08:17:10.404Z,7.68
2022-08-25T08:19:13.676Z,10.68
2022-08-25T08:21:28.979Z,6.78
2022-08-25T08:23:31.954Z,7.95
2022-08-25T08:25:34.597Z,9.57
2022-08-25T08:27:37.053Z,8.88
2022-08-25T08:29:40.207Z,11.95
2022-08-25T08:31:48.744Z,8.57
2022-08-25T08:33:55.008Z,6.47
2022-08-25T08:36:09.340Z,8.90
2022-08-25T08:38:17.364Z,5.68
2022-08-25T08:40:22.992Z,8.38
2022-08-25T08:42:39.863Z,11.05
2022-08-25T08:44:59.159Z,11.45
2022-08-25T08:47:36.346Z,7.20
2022-08-25T08:49:58.380Z,9.55
2022-08-25T08:52:03.145Z,9.55
2022-08-25T08:54:15.203Z,6.70
2022-08-25T08:56:30.800Z,9.63
2022-08-25T08:58:41.743Z,8.32
2022-08-25T09:00:52.061Z,9.55
2022-08-25T09:03:07.580Z,6.57
2022-08-25T09:05:14.970Z,9.45
2022-08-25T09:07:21.676Z,7.97
2022-08-25T09:09:29.058Z,8.23
2022-08-25T09:11:40.200Z,12.07
2022-08-25T09:14:02.160Z,7.07
2022-08-25T09:16:50.490Z,8.18
2022-08-25T09:19:23.639Z,10.27
2022-08-25T09:21:41.117Z,8.50
2022-08-25T09:24:05.182Z,13.73
2022-08-25T09:26:36.168Z,9.05
2022-08-25T09:28:55.209Z,7.20
2022-08-25T09:31:03.937Z,9.38
2022-08-25T09:33:07.180Z,7.22
2022-08-25T09:35:19.496Z,9.27
2022-08-25T09:37:25.040Z,6.47
2022-08-25T09:39:27.898Z,8.02
2022-08-25T09:41:45.845Z,5.30
2022-08-25T09:43:54.764Z,8.52
2022-08-25T09:46:08.869Z,6.20
2022-08-25T09:48:21.158Z,7.30
2022-08-25T09:50:25.060Z,6.32
2022-08-25T09:52:32.722Z,9.23
2022-08-25T09:54:44.362Z,10.25
2022-08-25T09:56:56.351Z,7.60
2022-08-25T09:59:34.220Z,11.32
2022-08-25T10:01:48.955Z,10.80
2022-08-25T10:03:57.003Z,9.50
2022-08-25T10:06:06.775Z,9.60
2022-08-25T10:08:40.734Z,6.47
2022-08-25T10:10:53.022Z,9.85
2022-08-25T10:12:58.265Z,5.50
2022-08-25T10:15:00.272Z,6.22
2022-08-25T10:17:29.871Z,8.10
2022-08-25T10:19:31.912Z,5.70
2022-08-25T10:21:35.293Z,6.03
2022-08-25T10:23:46.410Z,4.93
2022-08-25T10:25:59.468Z,7.97
2022-08-25T10:28:22.866Z,7.18
2022-08-25T10:30:39.343Z,7.82
2022-08-25T10:32:46.904Z,4.97
2022-08-25T10:34:53.794Z,7.90
2022-08-25T10:37:17.431Z,6.18
2022-08-25T10:39:55.711Z,9.50
2022-08-25T10:42:10.482Z,5.35
2022-08-25T10:44:56.323Z,6.78
2022-08-25T10:47:26.034Z,7.93
2022-08-25T10:49:45.440Z,6.78
2022-08-25T10:52:14.335Z,8.88
2022-08-25T10:54:34.287Z,5.32
2022-08-25T10:56:41.877Z,13.93
2022-08-25T10:58:57.052Z,5.93
2022-08-25T11:01:16.595Z,7.22
2022-08-25T11:03:38.560Z,5.22
2022-08-25T11:05:58.201Z,4.65
2022-08-25T11:08:36.955Z,6.72
2022-08-25T11:10:53.024Z,4.68
2022-08-25T11:12:57.774Z,6.63
2022-08-25T11:15:04.174Z,5.95
2022-08-25T11:17:15.354Z,8.68
2022-08-25T11:19:38.114Z,5.75
2022-08-25T11:21:46.287Z,7.40
2022-08-25T11:24:03.340Z,8.15
2022-08-25T11:26:13.230Z,4.93
2022-08-25T11:28:31.111Z,5.80
2022-08-25T11:30:33.335Z,5.35
2022-08-25T11:32:38.146Z,9.65
2022-08-25T11:34:43.618Z,5.05
2022-08-25T11:36:56.466Z,9.32
2022-08-25T11:39:12.292Z,5.50
2022-08-25T11:41:43.826Z,10.73
2022-08-25T11:44:34.425Z,6.85
2022-08-25T11:46:50.369Z,7.15
2022-08-25T11:49:02.175Z,7.60
2022-08-25T11:51:10.740Z,5.57
2022-08-25T11:53:28.110Z,7.57
2022-08-25T11:55:47.998Z,6.15
2022-08-25T11:57:53.784Z,7.20
2022-08-25T12:00:07.348Z,6.25
2022-08-25T12:02:36.370Z,6.43
2022-08-25T12:04:45.083Z,8.25
2022-08-25T12:07:07.486Z,7.50
2022-08-25T12:09:13.302Z,3.33
2022-08-25T12:11:38.324Z,5.55
2022-08-25T12:13:48.370Z,4.93
2022-08-25T12:15:50.345Z,5.13
2022-08-25T12:18:26.712Z,6.53
2022-08-25T12:21:06.906Z,5.65
2022-08-25T12:23:09.474Z,5.18
2022-08-25T12:25:33.787Z,3.92
2022-08-25T12:28:09.278Z,4.15
2022-08-25T12:30:23.377Z,6.38
2022-08-25T12:32:56.206Z,6.72
2022-08-25T12:35:07.065Z,3.88
2022-08-25T12:37:24.102Z,6.63
2022-08-25T12:39:33.217Z,10.55
2022-08-25T12:41:36.248Z,4.63
2022-08-25T12:43:42.331Z,3.63
2022-08-25T12:45:47.681Z,4.22
2022-08-25T12:47:50.963Z,4.43
2022-08-25T12:49:54.813Z,5.20
2022-08-25T12:52:19.806Z,5.82
2022-08-25T12:54:36.843Z,5.38
2022-08-25T12:56:49.940Z,6.68
2022-08-25T12:59:44.742Z,3.90
2022-08-25T13:02:16.495Z,5.47
2022-08-25T13:04:45.811Z,5.78
2022-08-25T13:07:21.459Z,4.65
2022-08-25T13:10:12.986Z,5.47
2022-08-25T13:12:39.300Z,6.38
2022-08-25T13:14:43.986Z,6.18
2022-08-25T13:16:57.609Z,5.93
2022-08-25T13:19:05.206Z,4.63
2022-08-25T13:21:19.569Z,6.72
2022-08-25T13:23:27.699Z,7.72
2022-08-25T13:25:33.308Z,3.97
2022-08-25T13:27:37.282Z,4.50
2022-08-25T13:29:52.176Z,6.30
2022-08-25T13:32:01.396Z,5.68
2022-08-25T13:34:06.997Z,5.40
2022-08-25T13:36:35.779Z,4.50
2022-08-25T13:38:38.390Z,4.15
2022-08-25T13:40:41.526Z,4.55
2022-08-25T13:42:56.091Z,6.07
2022-08-25T13:44:59.363Z,9.90
2022-08-25T13:47:43.483Z,5.63
2022-08-25T13:49:48.099Z,7.68
2022-08-25T13:51:53.426Z,5.95
2022-08-25T13:54:00.494Z,3.00
2022-08-25T13:56:03.772Z,8.20
2022-08-25T14:00:38.963Z,5.75
2022-08-25T14:02:49.945Z,3.80
2022-08-25T14:04:52.873Z,4.25
2022-08-25T14:07:20.319Z,4.13
2022-08-25T14:09:28.171Z,5.28
2022-08-25T14:11:56.916Z,3.67
2022-08-25T14:14:03.111Z,4.90
2022-08-25T14:16:14.372Z,6.60
2022-08-25T14:18:27.137Z,5.32
2022-08-25T14:20:31.603Z,4.22
2022-08-25T14:22:33.729Z,3.63
2022-08-25T14:24:40.721Z,6.38
2022-08-25T14:26:53.855Z,5.70
2022-08-25T14:28:56.807Z,4.57
2022-08-25T14:31:08.399Z,5.60
2022-08-25T14:33:11.582Z,5.88
2022-08-25T14:35:13.548Z,4.68
2022-08-25T14:37:20.311Z,5.28
2022-08-25T14:39:27.852Z,6.35
2022-08-25T14:41:29.787Z,8.90
2022-08-25T14:43:32.406Z,17.55
2022-08-25T14:45:37.936Z,5.72
2022-08-25T14:47:40.908Z,5.70
2022-08-25T14:49:45.850Z,4.13
2022-08-25T14:51:49.370Z,4.22
2022-08-25T14:53:54.046Z,5.23
2022-08-25T14:55:59.033Z,3.90
2022-08-25T14:58:01.380Z,5.50
2022-08-25T15:00:07.124Z,5.40
2022-08-25T15:02:20.094Z,8.98
2022-08-25T15:04:27.548Z,6.60
2022-08-25T15:06:29.976Z,4.70
2022-08-25T15:08:50.759Z,4.95
2022-08-25T15:10:52.661Z,6.70
2022-08-25T15:12:54.834Z,7.90
2022-08-25T15:14:58.264Z,5.40
2022-08-25T15:17:01.675Z,5.22
2022-08-25T15:19:08.844Z,5.30
2022-08-25T15:21:12.862Z,6.80
2022-08-25T15:23:18.575Z,5.47
2022-08-25T15:25:21.902Z,5.05
2022-08-25T15:27:26.133Z,5.10
2022-08-25T15:29:34.942Z,6.38
2022-08-25T15:31:37.290Z,6.88
2022-08-25T15:33:39.691Z,4.15
2022-08-25T15:35:41.732Z,6.60
2022-08-25T15:37:48.141Z,8.27
2022-08-25T15:39:50.110Z,4.53
2022-08-25T15:41:52.547Z,9.30
2022-08-25T15:43:54.727Z,4.78
2022-08-25T15:45:58.562Z,10.38
2022-08-25T15:48:02.450Z,6.53
2022-08-25T15:50:08.981Z,5.05
2022-08-25T15:52:13.606Z,7.38
2022-08-25T15:54:15.893Z,6.45
2022-08-25T15:56:26.932Z,8.23
2022-08-25T15:58:29.065Z,5.00
2022-08-25T16:00:31.825Z,5.63
2022-08-25T16:02:34.768Z,4.57
2022-08-25T16:04:36.897Z,6.28
2022-08-25T16:06:39.377Z,7.10
2022-08-25T16:08:43.123Z,7.60
2022-08-25T16:10:45.174Z,6.65
2022-08-25T16:12:47.464Z,6.85
2022-08-25T16:14:50.639Z,4.78
2022-08-25T16:16:58.018Z,4.57
2022-08-25T16:19:01.509Z,5.60
2022-08-25T16:21:03.858Z,7.05
2022-08-25T16:23:16.360Z,7.18
2022-08-25T16:25:23.109Z,7.05
2022-08-25T16:27:25.224Z,5.97
2022-08-25T16:29:27.194Z,5.80
2022-08-25T16:31:38.456Z,4.55
2022-08-25T16:35:44.134Z,4.72
2022-08-25T16:37:46.118Z,5.85
2022-08-25T16:39:54.886Z,5.40
2022-08-25T16:41:57.707Z,5.72
2022-08-25T16:44:07.717Z,5.07
2022-08-25T16:46:17.613Z,5.55
2022-08-25T16:48:20.658Z,4.63
2022-08-25T16:50:24.756Z,5.15
2022-08-25T16:52:52.718Z,4.45
2022-08-25T16:55:13.124Z,9.73
2022-08-25T16:57:16.957Z,6.32
2022-08-25T16:59:20.134Z,5.53
2022-08-25T17:01:23.062Z,7.15
2022-08-25T17:03:24.995Z,9.82
2022-08-25T17:05:28.778Z,5.55
2022-08-25T17:07:30.739Z,5.90
2022-08-25T17:09:33.623Z,8.57
2022-08-25T17:11:43.048Z,5.93
2022-08-25T17:13:49.707Z,6.85
2022-08-25T17:15:52.285Z,4.47
2022-08-25T17:17:54.682Z,8.57
2022-08-25T17:19:56.608Z,7.38
2022-08-25T17:21:58.795Z,4.47
2022-08-25T17:24:01.615Z,6.07
2022-08-25T17:26:08.651Z,5.78
2022-08-25T17:28:15.004Z,7.82
2022-08-25T17:30:16.977Z,7.15
2022-08-25T17:32:19.580Z,6.17
2022-08-25T17:34:23.199Z,6.47
2022-08-25T17:36:26.879Z,4.93
2022-08-25T17:38:30.234Z,6.57
2022-08-25T17:40:35.852Z,6.80
2022-08-25T17:42:37.992Z,4.50
2022-08-25T17:44:39.934Z,7.25
2022-08-25T17:46:47.505Z,5.50
2022-08-25T17:48:50.730Z,4.90
2022-08-25T17:50:53.336Z,6.07
2022-08-25T17:52:55.416Z,6.60
2022-08-25T17:54:58.915Z,6.25
2022-08-25T17:59:02.970Z,7.50
2022-08-25T18:01:06.149Z,6.45
2022-08-25T18:03:08.504Z,7.00
2022-08-25T18:07:14.958Z,6.53
2022-08-25T18:09:17.459Z,9.27
2022-08-25T18:11:20.503Z,9.43
2022-08-25T18:13:22.787Z,11.87
2022-08-25T18:15:25.074Z,6.38
2022-08-25T18:17:31.409Z,7.07
2022-08-25T18:19:33.519Z,5.40
2022-08-25T18:21:36.165Z,6.90
2022-08-25T18:23:38.567Z,8.20
2022-08-25T18:25:41.906Z,7.28
2022-08-25T18:27:45.242Z,5.18
2022-08-25T18:29:47.077Z,14.48
2022-08-25T18:31:49.866Z,7.40
2022-08-25T18:33:53.915Z,13.05
2022-08-25T18:35:56.674Z,10.82
2022-08-25T18:38:17.451Z,9.27
2022-08-25T18:40:25.755Z,9.32
2022-08-25T18:42:28.933Z,8.80
2022-08-25T18:44:31.717Z,6.80
2022-08-25T18:46:33.806Z,8.60
2022-08-25T18:48:35.887Z,8.90
2022-08-25T18:50:41.764Z,8.05
2022-08-25T18:52:45.740Z,10.18
2022-08-25T18:54:47.721Z,11.57
2022-08-25T18:56:51.347Z,8.27
2022-08-25T18:58:53.772Z,8.10
2022-08-25T19:00:56.449Z,10.43
2022-08-25T19:03:00.407Z,8.82
2022-08-25T19:05:07.532Z,10.23
2022-08-25T19:07:10.041Z,11.55
2022-08-25T19:09:12.288Z,10.30
2022-08-25T19:11:14.462Z,17.73
2022-08-25T19:13:22.624Z,17.13
2022-08-25T19:15:26.660Z,7.10
2022-08-25T19:19:39.512Z,8.35
2022-08-25T19:21:42.487Z,17.73
2022-08-25T19:23:44.388Z,23.90
2022-08-25T19:25:46.765Z,14.07
2022-08-25T19:27:50.741Z,14.35
2022-08-25T19:29:53.727Z,15.40
2022-08-25T19:31:56.816Z,31.42
2022-08-25T19:34:04.739Z,33.58
2022-08-25T19:36:08.778Z,30.10
2022-08-25T19:38:35.213Z,36.38
2022-08-25T19:40:37.951Z,35.53
2022-08-25T19:42:41.115Z,21.15
2022-08-25T19:44:43.754Z,30.73
2022-08-25T19:46:46.560Z,19.30
2022-08-25T19:48:48.852Z,14.13
2022-08-25T19:50:56.026Z,19.20
2022-08-25T19:52:58.355Z,18.80
2022-08-25T19:55:02.856Z,12.95
2022-08-25T19:57:07.882Z,16.08
2022-08-25T19:59:12.933Z,14.20
2022-08-25T20:01:18.187Z,15.02
2022-08-25T20:03:21.595Z,24.30
2022-08-25T20:05:24.924Z,14.80
2022-08-25T20:07:30.537Z,19.38
2022-08-25T20:09:38.936Z,25.13
2022-08-25T20:11:42.619Z,15.68
2022-08-25T20:13:44.622Z,19.67
2022-08-25T20:15:47.166Z,15.55
2022-08-25T20:17:49.154Z,20.58
2022-08-25T20:19:53.750Z,19.15
2022-08-25T20:21:55.919Z,17.60
2022-08-25T20:24:16.912Z,12.10
2022-08-25T20:26:18.964Z,16.13
2022-08-25T20:28:21.184Z,18.15
2022-08-25T20:30:26.935Z,15.98
2022-08-25T20:32:29.156Z,19.02
2022-08-25T20:34:31.250Z,17.65
2022-08-25T20:36:37.729Z,11.55
2022-08-25T20:38:44.594Z,14.10
2022-08-25T20:40:49.182Z,12.98
2022-08-25T20:42:51.126Z,18.13
2022-08-25T20:44:53.641Z,17.27
2022-08-25T20:46:58.372Z,14.35
2022-08-25T20:49:01.370Z,12.85
2022-08-25T20:51:07.215Z,12.63
2022-08-25T20:53:10.192Z,12.98
2022-08-25T20:55:17.577Z,12.88
2022-08-25T20:57:25.503Z,15.52
2022-08-25T20:59:28.094Z,15.60
2022-08-25T21:01:39.770Z,16.92
2022-08-25T21:03:42.285Z,17.58
2022-08-25T21:05:44.406Z,19.70
2022-08-25T21:07:46.382Z,14.23
2022-08-25T21:09:51.406Z,10.95
2022-08-25T21:11:55.781Z,15.10
2022-08-25T21:13:58.831Z,10.45
2022-08-25T21:16:02.563Z,16.60
2022-08-25T21:18:08.439Z,14.73
2022-08-25T21:20:17.233Z,12.77
2022-08-25T21:22:19.533Z,15.07
2022-08-25T21:24:22.056Z,19.23
2022-08-25T21:26:27.416Z,15.38
2022-08-25T21:28:29.974Z,14.75
2022-08-25T21:30:34.276Z,11.68
2022-08-25T21:32:36.769Z,10.23
2022-08-25T21:34:39.708Z,12.07
2022-08-25T21:36:42.265Z,11.65
2022-08-25T21:38:44.222Z,10.63
2022-08-25T21:40:46.131Z,14.13
2022-08-25T21:42:51.393Z,18.80
2022-08-25T21:44:53.575Z,11.95
2022-08-25T21:46:56.258Z,12.95
2022-08-25T21:48:59.946Z,9.98
2022-08-25T21:53:12.020Z,15.50
2022-08-25T21:55:15.994Z,10.00
2022-08-25T21:57:23.643Z,11.30
2022-08-25T21:59:29.872Z,11.57
2022-08-25T22:01:31.804Z,16.10
2022-08-25T22:03:35.144Z,9.48
2022-08-25T22:05:39.415Z,12.82
2022-08-25T22:09:46.239Z,12.40
2022-08-25T22:11:50.853Z,9.80
2022-08-25T22:13:54.133Z,11.18
2022-08-25T22:15:56.083Z,11.18
2022-08-25T22:17:58.111Z,11.68
2022-08-25T22:20:00.853Z,15.68
2022-08-25T22:22:03.685Z,11.68
2022-08-25T22:24:05.844Z,11.90
2022-08-25T22:26:07.872Z,14.07
2022-08-25T22:28:14.531Z,13.52
2022-08-25T22:30:17.076Z,15.43
2022-08-25T22:32:19.145Z,22.40
2022-08-25T22:34:30.356Z,17.73
2022-08-25T22:36:36.728Z,21.05
2022-08-25T22:38:38.638Z,19.75
2022-08-25T22:40:41.284Z,20.23
2022-08-25T22:42:47.781Z,24.15
2022-08-25T22:44:50.447Z,28.08
2022-08-25T22:46:52.777Z,22.17
2022-08-25T22:48:55.599Z,25.08
2022-08-25T22:51:05.360Z,23.63
2022-08-25T22:53:09.237Z,24.77
2022-08-25T22:57:15.258Z,27.60
2022-08-25T22:59:17.361Z,27.60
2022-08-25T23:01:20.645Z,28.55
2022-08-25T23:03:22.705Z,30.05
2022-08-25T23:05:24.650Z,29.35
2022-08-25T23:07:26.756Z,28.15
2022-08-25T23:09:28.650Z,29.50
2022-08-25T23:11:30.759Z,31.60
2022-08-25T23:13:34.213Z,30.40
2022-08-25T23:15:36.590Z,32.15
2022-08-25T23:17:38.922Z,34.55
2022-08-25T23:19:40.852Z,33.50
2022-08-25T23:22:03.002Z,34.47
2022-08-25T23:24:05.478Z,21.08
2022-08-25T23:26:07.865Z,27.70
2022-08-25T23:28:09.767Z,31.13
2022-08-25T23:30:13.286Z,34.22
2022-08-25T23:32:17.607Z,34.23
2022-08-25T23:34:20.626Z,33.00
2022-08-25T23:36:23.485Z,32.78
2022-08-25T23:38:25.507Z,31.58
2022-08-25T23:40:30.235Z,29.48
2022-08-25T23:42:33.555Z,31.23
2022-08-25T23:44:36.780Z,28.65
2022-08-25T23:46:39.187Z,30.25
2022-08-25T23:48:41.412Z,32.78
2022-08-25T23:50:48.141Z,30.90
2022-08-25T23:52:56.189Z,30.02
2022-08-25T23:54:58.238Z,31.25
2022-08-25T23:57:00.984Z,31.00
2022-08-25T23:59:04.520Z,28.88
